CPA252 EGLL-VHHH
Flight info
| Callsign | CPA252 |
|---|---|
| Flight time | N/A |
| Altitude | 31000 |
| Route | DET L6 DVR UL9 KONAN UL607 KOK DCT MATUG DCT BOMBI DCT TENLO DCT DEXIT DCT BEGLA DCT DEGET/N0489F330 DCT UDROS UM859 KARDE UL851 TBN UM11 REBLO M11 MATAL T916 LEYLA N161 GASBI/K0911F330 N161 DIVNO/K0898F350 N161 SARIN/K0895S1070 A368 FKG W192 ESDEX W191 RUSAT/K0898S1130 W191 DNC W565 BIGUX B330 KWE W181 DUDIT A599 POU R473 SIERA |
| Aircraft | B77W/H-SDE1E2E3FGHIJ2J3J4J5M1RWXY/LB1D1 |
Departure
| Time | 2026-05-06 05:42 |
|---|---|
| Airport | London Heathrow Airport (EGLL) |
Arrival
| Time | N/A |
|---|---|
| Airport | Hong Kong International Airport (VHHH) |
| Time | Latitude | Longitude | Altitude | Speed | Heading |
|---|---|---|---|---|---|
| 2026-05-06 05:07 | 51.47105 | -0.46147 | 91 ft | 0 kts | 56° |
| 2026-05-06 05:26 | 51.47101 | -0.46157 | 91 ft | 4 kts | 54° |
| 2026-05-06 05:27 | 51.47086 | -0.46192 | 94 ft | 4 kts | 53° |
| 2026-05-06 05:27 | 51.47072 | -0.46218 | 93 ft | 2 kts | 34° |
| 2026-05-06 05:27 | 51.47060 | -0.46226 | 93 ft | 2 kts | 359° |
| 2026-05-06 05:27 | 51.47041 | -0.46220 | 91 ft | 4 kts | 342° |
| 2026-05-06 05:28 | 51.47049 | -0.46224 | 93 ft | 3 kts | 340° |
| 2026-05-06 05:28 | 51.47067 | -0.46239 | 95 ft | 2 kts | 328° |
| 2026-05-06 05:28 | 51.47076 | -0.46248 | 95 ft | 1 kts | 325° |
| 2026-05-06 05:28 | 51.47081 | -0.46254 | 93 ft | 1 kts | 324° |
| 2026-05-06 05:29 | 51.47084 | -0.46257 | 93 ft | 0 kts | 324° |
| 2026-05-06 05:31 | 51.47099 | -0.46275 | 96 ft | 7 kts | 324° |
| 2026-05-06 05:31 | 51.47167 | -0.46348 | 94 ft | 15 kts | 326° |
| 2026-05-06 05:31 | 51.47228 | -0.46423 | 95 ft | 9 kts | 302° |
| 2026-05-06 05:32 | 51.47238 | -0.46521 | 93 ft | 9 kts | 271° |
| 2026-05-06 05:32 | 51.47239 | -0.46620 | 91 ft | 9 kts | 271° |
| 2026-05-06 05:32 | 51.47221 | -0.46711 | 95 ft | 9 kts | 220° |
| 2026-05-06 05:32 | 51.47159 | -0.46726 | 91 ft | 9 kts | 182° |
| 2026-05-06 05:33 | 51.47096 | -0.46728 | 91 ft | 9 kts | 180° |
| 2026-05-06 05:33 | 51.47034 | -0.46711 | 95 ft | 9 kts | 152° |
| 2026-05-06 05:33 | 51.46972 | -0.46644 | 96 ft | 15 kts | 145° |
| 2026-05-06 05:33 | 51.46873 | -0.46534 | 95 ft | 18 kts | 145° |
| 2026-05-06 05:34 | 51.46779 | -0.46432 | 94 ft | 11 kts | 146° |
| 2026-05-06 05:34 | 51.46746 | -0.46358 | 94 ft | 9 kts | 98° |
| 2026-05-06 05:34 | 51.46746 | -0.46252 | 95 ft | 12 kts | 90° |
| 2026-05-06 05:34 | 51.46747 | -0.46100 | 95 ft | 14 kts | 90° |
| 2026-05-06 05:35 | 51.46747 | -0.45948 | 95 ft | 14 kts | 89° |
| 2026-05-06 05:35 | 51.46748 | -0.45792 | 95 ft | 14 kts | 89° |
| 2026-05-06 05:35 | 51.46748 | -0.45640 | 95 ft | 14 kts | 89° |
| 2026-05-06 05:35 | 51.46749 | -0.45483 | 91 ft | 15 kts | 90° |
| 2026-05-06 05:36 | 51.46749 | -0.45281 | 92 ft | 19 kts | 90° |
| 2026-05-06 05:36 | 51.46750 | -0.45066 | 92 ft | 19 kts | 89° |
| 2026-05-06 05:36 | 51.46752 | -0.44851 | 92 ft | 19 kts | 89° |
| 2026-05-06 05:36 | 51.46751 | -0.44636 | 92 ft | 19 kts | 90° |
| 2026-05-06 05:37 | 51.46752 | -0.44421 | 92 ft | 19 kts | 89° |
| 2026-05-06 05:37 | 51.46753 | -0.44213 | 91 ft | 13 kts | 89° |
| 2026-05-06 05:37 | 51.46753 | -0.44132 | 94 ft | 6 kts | 89° |
| 2026-05-06 05:37 | 51.46748 | -0.44087 | 92 ft | 2 kts | 115° |
| 2026-05-06 05:38 | 51.46736 | -0.44070 | 94 ft | 2 kts | 149° |
| 2026-05-06 05:38 | 51.46719 | -0.44064 | 94 ft | 3 kts | 168° |
| 2026-05-06 05:38 | 51.46700 | -0.44059 | 95 ft | 3 kts | 173° |
| 2026-05-06 05:38 | 51.46681 | -0.44048 | 94 ft | 3 kts | 140° |
| 2026-05-06 05:39 | 51.46668 | -0.43970 | 92 ft | 11 kts | 93° |
| 2026-05-06 05:39 | 51.46668 | -0.43849 | 91 ft | 11 kts | 91° |
| 2026-05-06 05:39 | 51.46667 | -0.43729 | 91 ft | 11 kts | 90° |
| 2026-05-06 05:39 | 51.46661 | -0.43637 | 93 ft | 5 kts | 115° |
| 2026-05-06 05:40 | 51.46629 | -0.43613 | 95 ft | 5 kts | 170° |
| 2026-05-06 05:40 | 51.46593 | -0.43608 | 92 ft | 5 kts | 178° |
| 2026-05-06 05:40 | 51.46557 | -0.43608 | 92 ft | 5 kts | 180° |
| 2026-05-06 05:40 | 51.46521 | -0.43610 | 91 ft | 5 kts | 190° |
| 2026-05-06 05:41 | 51.46498 | -0.43658 | 91 ft | 6 kts | 251° |
| 2026-05-06 05:41 | 51.46494 | -0.43750 | 91 ft | 17 kts | 271° |
| 2026-05-06 05:41 | 51.46493 | -0.44160 | 91 ft | 69 kts | 269° |
| 2026-05-06 05:41 | 51.46488 | -0.45320 | 92 ft | 138 kts | 270° |
| 2026-05-06 05:42 | 51.46482 | -0.47198 | 107 ft | 192 kts | 270° |
| 2026-05-06 05:42 | 51.46468 | -0.49316 | 748 ft | 189 kts | 272° |
| 2026-05-06 05:42 | 51.46458 | -0.51488 | 1270 ft | 201 kts | 267° |
| 2026-05-06 05:42 | 51.45920 | -0.53572 | 1696 ft | 207 kts | 227° |
| 2026-05-06 05:43 | 51.44696 | -0.54810 | 1983 ft | 217 kts | 192° |
| 2026-05-06 05:43 | 51.43200 | -0.54722 | 2218 ft | 219 kts | 157° |
| 2026-05-06 05:43 | 51.41959 | -0.53337 | 2437 ft | 219 kts | 126° |
| 2026-05-06 05:43 | 51.40948 | -0.51471 | 2802 ft | 229 kts | 129° |
| 2026-05-06 05:44 | 51.39794 | -0.49566 | 3163 ft | 247 kts | 132° |
| 2026-05-06 05:44 | 51.38543 | -0.47590 | 3666 ft | 258 kts | 133° |
| 2026-05-06 05:44 | 51.37241 | -0.45530 | 4134 ft | 268 kts | 133° |
| 2026-05-06 05:44 | 51.35896 | -0.43399 | 4710 ft | 275 kts | 134° |
| 2026-05-06 05:45 | 51.34523 | -0.41228 | 5314 ft | 280 kts | 134° |
| 2026-05-06 05:45 | 51.33133 | -0.39024 | 5892 ft | 284 kts | 134° |
| 2026-05-06 05:45 | 51.31892 | -0.36579 | 5963 ft | 285 kts | 110° |
| 2026-05-06 05:45 | 51.31564 | -0.33533 | 6012 ft | 277 kts | 83° |
| 2026-05-06 05:46 | 51.31683 | -0.30452 | 6017 ft | 280 kts | 84° |
| 2026-05-06 05:46 | 51.31755 | -0.27339 | 6436 ft | 281 kts | 85° |
| 2026-05-06 05:46 | 51.31805 | -0.24207 | 7084 ft | 282 kts | 87° |
| 2026-05-06 05:46 | 51.31781 | -0.21072 | 7726 ft | 284 kts | 89° |
| 2026-05-06 05:47 | 51.31731 | -0.17944 | 8309 ft | 286 kts | 89° |
| 2026-05-06 05:47 | 51.31676 | -0.14714 | 8907 ft | 288 kts | 89° |
| 2026-05-06 05:47 | 51.31628 | -0.11547 | 9526 ft | 289 kts | 89° |
| 2026-05-06 05:47 | 51.31579 | -0.08285 | 10118 ft | 291 kts | 89° |
| 2026-05-06 05:48 | 51.31530 | -0.05045 | 10423 ft | 304 kts | 90° |
| 2026-05-06 05:48 | 51.31479 | -0.01555 | 10559 ft | 323 kts | 90° |
| 2026-05-06 05:48 | 51.31425 | 0.02139 | 10718 ft | 343 kts | 90° |
| 2026-05-06 05:48 | 51.31365 | 0.06064 | 10861 ft | 363 kts | 90° |
| 2026-05-06 05:49 | 51.31299 | 0.10157 | 11315 ft | 373 kts | 90° |
| 2026-05-06 05:49 | 51.31229 | 0.14344 | 11944 ft | 379 kts | 90° |
| 2026-05-06 05:49 | 51.31158 | 0.18564 | 12663 ft | 383 kts | 91° |
| 2026-05-06 05:49 | 51.31086 | 0.22833 | 13436 ft | 386 kts | 91° |
| 2026-05-06 05:50 | 51.31012 | 0.27148 | 14092 ft | 391 kts | 91° |
| 2026-05-06 05:50 | 51.30935 | 0.31501 | 14867 ft | 393 kts | 91° |
| 2026-05-06 05:50 | 51.30857 | 0.35887 | 15555 ft | 396 kts | 91° |
| 2026-05-06 05:50 | 51.30777 | 0.40320 | 16211 ft | 400 kts | 91° |
| 2026-05-06 05:51 | 51.30694 | 0.44787 | 16884 ft | 403 kts | 91° |
| 2026-05-06 05:51 | 51.30607 | 0.49291 | 17515 ft | 407 kts | 91° |
| 2026-05-06 05:51 | 51.30518 | 0.53821 | 18186 ft | 410 kts | 91° |
| 2026-05-06 05:51 | 51.30424 | 0.58397 | 18776 ft | 413 kts | 92° |
| 2026-05-06 05:52 | 51.30041 | 0.62954 | 19267 ft | 417 kts | 104° |
| 2026-05-06 05:52 | 51.29245 | 0.67363 | 19802 ft | 420 kts | 107° |
| 2026-05-06 05:52 | 51.28354 | 0.71827 | 20341 ft | 423 kts | 108° |
| 2026-05-06 05:52 | 51.27454 | 0.76330 | 20875 ft | 427 kts | 107° |
| 2026-05-06 05:53 | 51.26572 | 0.80865 | 21494 ft | 428 kts | 107° |
| 2026-05-06 05:53 | 51.25707 | 0.85426 | 22062 ft | 430 kts | 107° |
| 2026-05-06 05:53 | 51.24849 | 0.90028 | 22472 ft | 436 kts | 107° |
| 2026-05-06 05:53 | 51.23985 | 0.94695 | 22952 ft | 440 kts | 107° |
| 2026-05-06 05:54 | 51.23116 | 0.99405 | 23405 ft | 445 kts | 107° |
| 2026-05-06 05:54 | 51.22237 | 1.04161 | 23765 ft | 450 kts | 107° |
| 2026-05-06 05:54 | 51.21344 | 1.08974 | 24157 ft | 453 kts | 107° |
| 2026-05-06 05:54 | 51.20447 | 1.13796 | 24612 ft | 455 kts | 107° |
| 2026-05-06 05:55 | 51.19544 | 1.18629 | 25038 ft | 457 kts | 107° |
| 2026-05-06 05:55 | 51.18633 | 1.23504 | 25449 ft | 459 kts | 107° |
| 2026-05-06 05:55 | 51.17715 | 1.28391 | 25836 ft | 462 kts | 107° |
| 2026-05-06 05:55 | 51.16814 | 1.33330 | 26216 ft | 465 kts | 104° |
| 2026-05-06 05:56 | 51.16156 | 1.38389 | 26599 ft | 467 kts | 99° |
| 2026-05-06 05:56 | 51.15835 | 1.43547 | 26969 ft | 470 kts | 94° |
| 2026-05-06 05:56 | 51.15613 | 1.48762 | 27318 ft | 473 kts | 94° |
| 2026-05-06 05:56 | 51.15395 | 1.53930 | 27687 ft | 475 kts | 94° |
| 2026-05-06 05:57 | 51.15161 | 1.59182 | 28055 ft | 476 kts | 95° |
| 2026-05-06 05:57 | 51.14913 | 1.64448 | 28388 ft | 478 kts | 95° |
| 2026-05-06 05:57 | 51.14654 | 1.69735 | 28734 ft | 480 kts | 95° |
| 2026-05-06 05:57 | 51.14387 | 1.75040 | 29029 ft | 482 kts | 95° |
| 2026-05-06 05:58 | 51.14116 | 1.80376 | 29326 ft | 484 kts | 95° |
| 2026-05-06 05:58 | 51.13841 | 1.85723 | 29619 ft | 485 kts | 95° |
| 2026-05-06 05:58 | 51.13566 | 1.91079 | 29914 ft | 486 kts | 95° |
| 2026-05-06 05:58 | 51.13288 | 1.96433 | 30239 ft | 485 kts | 95° |
| 2026-05-06 05:59 | 51.13006 | 2.01797 | 30598 ft | 484 kts | 95° |
| 2026-05-06 05:59 | 51.12724 | 2.07117 | 30868 ft | 484 kts | 95° |
| 2026-05-06 05:59 | 51.12151 | 2.17802 | 30903 ft | 484 kts | 95° |
| 2026-05-06 06:00 | 51.11571 | 2.28472 | 30903 ft | 483 kts | 95° |
| 2026-05-06 06:00 | 51.10987 | 2.39036 | 30892 ft | 482 kts | 95° |
| 2026-05-06 06:01 | 51.10391 | 2.49655 | 30886 ft | 482 kts | 95° |
| 2026-05-06 06:01 | 51.09784 | 2.60294 | 30887 ft | 482 kts | 96° |
| 2026-05-06 06:02 | 51.08686 | 2.70790 | 30882 ft | 481 kts | 105° |
| 2026-05-06 06:02 | 51.06944 | 2.81068 | 30887 ft | 480 kts | 105° |
| 2026-05-06 06:03 | 51.05195 | 2.91292 | 30887 ft | 479 kts | 105° |
| 2026-05-06 06:03 | 51.03486 | 3.01422 | 30882 ft | 477 kts | 105° |
| 2026-05-06 06:04 | 51.01778 | 3.11579 | 30878 ft | 474 kts | 105° |
| 2026-05-06 06:04 | 51.00072 | 3.21691 | 30880 ft | 473 kts | 105° |
| 2026-05-06 06:05 | 50.98358 | 3.31774 | 30873 ft | 472 kts | 105° |
| 2026-05-06 06:05 | 50.96639 | 3.41835 | 30872 ft | 473 kts | 105° |
| 2026-05-06 06:06 | 50.94915 | 3.51856 | 30877 ft | 476 kts | 105° |
| 2026-05-06 06:06 | 50.93162 | 3.61991 | 30868 ft | 478 kts | 105° |
| 2026-05-06 06:07 | 50.91401 | 3.72122 | 30854 ft | 474 kts | 105° |
| 2026-05-06 06:07 | 50.89649 | 3.82138 | 30849 ft | 471 kts | 105° |
| 2026-05-06 06:08 | 50.87894 | 3.92115 | 30850 ft | 470 kts | 105° |
| 2026-05-06 06:08 | 50.86126 | 4.02108 | 30854 ft | 473 kts | 105° |
| 2026-05-06 06:09 | 50.84340 | 4.12146 | 30850 ft | 474 kts | 105° |